createdAt,value
2023-03-06T08:28:40.088Z,118.12
2023-03-06T08:29:40.116Z,118.12
2023-03-06T08:30:40.193Z,123.75
2023-03-06T08:31:40.044Z,129.38
2023-03-06T08:32:40.020Z,135.00
2023-03-06T08:33:39.991Z,135.00
2023-03-06T08:34:39.946Z,140.62
2023-03-06T08:35:40.164Z,146.25
2023-03-06T08:36:39.933Z,151.88
2023-03-06T08:37:41.104Z,151.88
2023-03-06T08:38:41.066Z,151.88
2023-03-06T08:39:41.059Z,151.88
2023-03-06T08:40:40.999Z,151.88
2023-03-06T08:41:40.988Z,151.88
2023-03-06T08:42:41.010Z,157.50
2023-03-06T08:43:40.998Z,163.12
2023-03-06T08:44:40.978Z,157.50
2023-03-06T08:45:41.098Z,157.50
2023-03-06T08:46:40.936Z,157.50
2023-03-06T08:47:40.918Z,151.88
2023-03-06T08:48:40.914Z,140.62
2023-03-06T08:49:40.934Z,123.75
2023-03-06T08:50:40.892Z,112.50
2023-03-06T08:51:40.874Z,101.25
2023-03-06T08:52:40.888Z,101.25
2023-03-06T08:53:43.627Z,95.62
2023-03-06T08:54:41.881Z,95.62
2023-03-06T08:55:40.898Z,90.00
2023-03-06T08:56:40.851Z,90.00
2023-03-06T08:57:40.802Z,90.00
2023-03-06T08:58:40.799Z,90.00
2023-03-06T08:59:40.830Z,90.00
2023-03-06T09:00:40.851Z,84.38
2023-03-06T09:01:40.822Z,73.12
2023-03-06T09:02:40.996Z,73.12
2023-03-06T09:03:42.621Z,73.12
2023-03-06T09:04:40.746Z,73.12
2023-03-06T09:05:40.741Z,67.50
2023-03-06T09:06:40.713Z,61.88
2023-03-06T09:07:40.693Z,56.25
2023-03-06T09:08:40.709Z,56.25
2023-03-06T09:09:40.693Z,56.25
2023-03-06T09:10:40.706Z,56.25
2023-03-06T09:11:40.656Z,56.25
2023-03-06T09:12:49.862Z,56.25
2023-03-06T09:13:40.779Z,61.88
2023-03-06T09:14:40.630Z,67.50
2023-03-06T09:15:40.750Z,73.12
2023-03-06T09:16:41.079Z,84.38
2023-03-06T09:17:40.695Z,95.62
2023-03-06T09:18:40.595Z,106.88
2023-03-06T09:19:40.609Z,112.50
2023-03-06T09:20:40.565Z,118.12
2023-03-06T09:21:40.542Z,123.75
2023-03-06T09:22:40.550Z,129.38
2023-03-06T09:23:40.513Z,129.38
2023-03-06T09:24:40.781Z,123.75
2023-03-06T09:25:40.585Z,123.75
2023-03-06T09:26:46.161Z,123.75
2023-03-06T09:27:41.499Z,118.12
2023-03-06T09:28:40.442Z,123.75
2023-03-06T09:29:40.457Z,129.38
2023-03-06T09:30:40.591Z,129.38
2023-03-06T09:31:40.435Z,135.00
2023-03-06T09:32:40.572Z,146.25
2023-03-06T09:33:40.445Z,151.88
2023-03-06T09:34:40.413Z,174.38
2023-03-06T09:35:40.465Z,393.75
2023-03-06T09:36:55.644Z,168.75
2023-03-06T09:37:41.393Z,112.50
2023-03-06T09:38:40.381Z,101.25
2023-03-06T09:39:40.380Z,106.88
2023-03-06T09:40:40.378Z,112.50
2023-03-06T09:41:40.305Z,118.12
2023-03-06T09:42:40.308Z,129.38
2023-03-06T09:43:40.327Z,146.25
2023-03-06T09:44:40.284Z,382.50
2023-03-06T09:45:40.350Z,140.62
2023-03-06T09:46:40.273Z,129.38
2023-03-06T09:47:40.230Z,123.75
2023-03-06T09:48:40.237Z,118.12
2023-03-06T09:49:40.244Z,118.12
2023-03-06T09:50:40.260Z,118.12
2023-03-06T09:51:40.191Z,112.50
2023-03-06T09:52:40.214Z,101.25
2023-03-06T09:53:40.187Z,101.25
2023-03-06T09:54:40.157Z,106.88
2023-03-06T09:55:40.216Z,118.12
2023-03-06T09:56:40.154Z,135.00
2023-03-06T09:57:40.117Z,157.50
2023-03-06T09:58:40.120Z,168.75
2023-03-06T09:59:40.112Z,174.38
2023-03-06T10:00:40.115Z,270.00
2023-03-06T10:01:40.085Z,241.88
2023-03-06T10:02:40.197Z,360.00
2023-03-06T10:03:40.097Z,399.38
2023-03-06T10:04:40.158Z,343.12
2023-03-06T10:05:40.100Z,253.12
2023-03-06T10:06:40.026Z,264.38
2023-03-06T10:07:40.025Z,185.62
2023-03-06T10:08:40.009Z,230.62
2023-03-06T10:09:39.990Z,185.62
2023-03-06T10:10:40.050Z,168.75
2023-03-06T10:11:39.975Z,236.25
2023-03-06T10:12:39.983Z,202.50
2023-03-06T10:13:39.950Z,230.62
2023-03-06T10:14:39.935Z,180.00
2023-03-06T10:15:39.977Z,174.38
2023-03-06T10:16:39.926Z,112.50
2023-03-06T10:17:42.193Z,95.62
2023-03-06T10:18:39.946Z,90.00
2023-03-06T10:19:39.908Z,84.38
2023-03-06T10:20:40.393Z,78.75
2023-03-06T10:21:39.909Z,78.75
2023-03-06T10:22:39.852Z,84.38
2023-03-06T10:23:39.834Z,95.62
2023-03-06T10:24:39.828Z,101.25
2023-03-06T10:25:39.849Z,112.50
2023-03-06T10:26:39.963Z,123.75
2023-03-06T10:27:39.792Z,135.00
2023-03-06T10:28:39.838Z,140.62
2023-03-06T10:29:41.048Z,140.62
2023-03-06T10:30:39.760Z,129.38
2023-03-06T10:31:39.805Z,106.88
2023-03-06T10:32:47.916Z,90.00
2023-03-06T10:33:39.755Z,78.75
2023-03-06T10:34:39.743Z,67.50
2023-03-06T10:35:39.703Z,61.88
2023-03-06T10:36:39.696Z,50.62
2023-03-06T10:37:39.767Z,50.62
2023-03-06T10:38:39.666Z,45.00
2023-03-06T10:39:39.652Z,39.38
2023-03-06T10:40:39.703Z,39.38
2023-03-06T10:41:39.651Z,39.38
2023-03-06T10:42:39.693Z,33.75
2023-03-06T10:43:39.637Z,33.75
2023-03-06T10:44:39.656Z,33.75
2023-03-06T10:45:48.974Z,39.38
2023-03-06T10:46:40.740Z,39.38
2023-03-06T10:47:39.589Z,39.38
2023-03-06T10:48:41.709Z,39.38
2023-03-06T10:49:39.557Z,39.38
2023-03-06T10:50:39.563Z,39.38
2023-03-06T10:51:39.542Z,39.38
2023-03-06T10:52:39.520Z,39.38
2023-03-06T10:53:39.562Z,39.38
2023-03-06T10:54:39.508Z,45.00
2023-03-06T10:55:39.508Z,45.00
2023-03-06T10:56:39.538Z,50.62
2023-03-06T10:57:39.471Z,56.25
2023-03-06T10:58:39.504Z,61.88
2023-03-06T10:59:39.436Z,61.88
2023-03-06T11:00:39.441Z,67.50
2023-03-06T11:01:39.444Z,73.12
2023-03-06T11:02:39.434Z,73.12
2023-03-06T11:03:39.413Z,78.75
2023-03-06T11:04:39.390Z,73.12
2023-03-06T11:05:39.392Z,73.12
2023-03-06T11:06:39.368Z,73.12
2023-03-06T11:07:39.360Z,73.12
2023-03-06T11:08:39.347Z,73.12
2023-03-06T11:09:39.369Z,78.75
2023-03-06T11:10:39.303Z,78.75
2023-03-06T11:11:39.306Z,84.38
2023-03-06T11:12:39.357Z,84.38
2023-03-06T11:13:39.277Z,90.00
2023-03-06T11:14:39.329Z,90.00
2023-03-06T11:15:39.942Z,90.00
2023-03-06T11:16:39.292Z,95.62
2023-03-06T11:17:39.235Z,101.25
2023-03-06T11:18:39.232Z,106.88
2023-03-06T11:19:39.257Z,106.88
2023-03-06T11:20:50.985Z,112.50
2023-03-06T11:21:39.231Z,118.12
2023-03-06T11:22:39.218Z,123.75
2023-03-06T11:23:39.182Z,129.38
2023-03-06T11:24:39.796Z,135.00
2023-03-06T11:25:39.209Z,135.00
2023-03-06T11:26:39.143Z,140.62
2023-03-06T11:27:39.125Z,140.62
2023-03-06T11:28:39.112Z,135.00
2023-03-06T11:29:39.217Z,123.75
2023-03-06T11:30:39.128Z,112.50
2023-03-06T11:31:39.175Z,101.25
2023-03-06T11:32:39.103Z,95.62
2023-03-06T11:33:39.061Z,95.62
2023-03-06T11:34:39.028Z,95.62
2023-03-06T11:35:39.098Z,95.62
2023-03-06T11:36:39.016Z,95.62
2023-03-06T11:37:39.007Z,95.62
2023-03-06T11:38:39.043Z,101.25
2023-03-06T11:39:38.981Z,95.62
2023-03-06T11:40:39.007Z,90.00
2023-03-06T11:41:38.992Z,78.75
2023-03-06T11:42:38.950Z,73.12
2023-03-06T11:43:38.963Z,67.50
2023-03-06T11:44:38.968Z,67.50
2023-03-06T11:45:38.908Z,61.88
2023-03-06T11:46:38.972Z,61.88
2023-03-06T11:47:38.885Z,56.25
2023-03-06T11:48:38.904Z,56.25
2023-03-06T11:49:38.866Z,56.25
2023-03-06T11:50:39.852Z,56.25
2023-03-06T11:51:38.886Z,50.62
2023-03-06T11:52:38.839Z,45.00
2023-03-06T11:53:38.849Z,45.00
2023-03-06T11:54:38.791Z,45.00
2023-03-06T11:55:38.846Z,45.00
2023-03-06T11:56:38.825Z,45.00
2023-03-06T11:57:38.789Z,45.00
2023-03-06T11:58:38.784Z,50.62
2023-03-06T11:59:38.795Z,56.25
2023-03-06T12:00:38.740Z,56.25
2023-03-06T12:01:38.803Z,61.88
2023-03-06T12:02:38.739Z,61.88
2023-03-06T12:03:38.711Z,56.25
2023-03-06T12:04:38.729Z,56.25
2023-03-06T12:05:38.788Z,50.62
2023-03-06T12:06:38.713Z,50.62
2023-03-06T12:07:38.728Z,45.00
2023-03-06T12:08:38.662Z,45.00
2023-03-06T12:09:38.637Z,45.00
2023-03-06T12:10:38.654Z,39.38
2023-03-06T12:11:38.638Z,39.38
2023-03-06T12:12:38.662Z,39.38
2023-03-06T12:13:38.600Z,39.38
2023-03-06T12:14:38.625Z,39.38
2023-03-06T12:15:38.600Z,39.38
2023-03-06T12:16:38.688Z,39.38
2023-03-06T12:17:38.554Z,39.38
2023-03-06T12:18:38.592Z,33.75
2023-03-06T12:19:38.555Z,33.75
2023-03-06T12:20:38.514Z,33.75
2023-03-06T12:21:38.529Z,33.75
2023-03-06T12:22:38.500Z,33.75
2023-03-06T12:23:39.557Z,28.12
2023-03-06T12:24:38.485Z,28.12
2023-03-06T12:25:38.463Z,28.12
2023-03-06T12:26:38.495Z,28.12
2023-03-06T12:27:38.446Z,28.12
2023-03-06T12:28:38.449Z,22.50
2023-03-06T12:29:38.455Z,22.50
2023-03-06T12:30:38.429Z,22.50
2023-03-06T12:31:38.408Z,22.50
2023-03-06T12:32:38.435Z,22.50
2023-03-06T12:33:38.423Z,22.50
2023-03-06T12:34:38.399Z,22.50
2023-03-06T12:35:38.416Z,22.50
2023-03-06T12:36:38.369Z,22.50
2023-03-06T12:37:38.322Z,28.12
2023-03-06T12:38:38.315Z,28.12
2023-03-06T12:39:38.331Z,28.12
2023-03-06T12:40:38.301Z,28.12
2023-03-06T12:41:38.275Z,33.75
2023-03-06T12:42:38.259Z,39.38
2023-03-06T12:43:40.074Z,56.25
2023-03-06T12:44:38.264Z,67.50
2023-03-06T12:45:38.402Z,84.38
2023-03-06T12:46:38.231Z,84.38
2023-03-06T12:47:38.228Z,78.75
2023-03-06T12:48:38.212Z,78.75
2023-03-06T12:49:38.251Z,78.75
2023-03-06T12:50:38.169Z,78.75
2023-03-06T12:51:38.170Z,78.75
2023-03-06T12:52:38.146Z,84.38
2023-03-06T12:53:38.137Z,90.00
2023-03-06T12:56:03.428Z,90.00
2023-03-06T12:56:09.897Z,84.38
2023-03-06T12:57:09.862Z,73.12
2023-03-06T12:58:09.899Z,61.88
2023-03-06T12:59:09.849Z,56.25
2023-03-06T13:00:09.869Z,50.62
2023-03-06T13:01:10.046Z,50.62
2023-03-06T13:02:09.858Z,50.62
2023-03-06T13:03:09.817Z,61.88
2023-03-06T13:04:09.807Z,73.12
2023-03-06T13:05:09.809Z,90.00
2023-03-06T13:06:09.759Z,101.25
2023-03-06T13:07:09.754Z,118.12
2023-03-06T13:08:09.780Z,129.38
2023-03-06T13:09:09.737Z,219.38
2023-03-06T13:10:10.206Z,410.62
2023-03-06T13:11:09.687Z,185.62
2023-03-06T13:12:09.695Z,174.38
2023-03-06T13:13:09.687Z,135.00
2023-03-06T13:14:09.831Z,118.12
2023-03-06T13:15:09.688Z,112.50
2023-03-06T13:16:09.659Z,106.88
2023-03-06T13:17:09.661Z,101.25
2023-03-06T13:18:09.629Z,95.62
2023-03-06T13:19:09.637Z,95.62
2023-03-06T13:20:09.593Z,106.88
2023-03-06T13:21:09.650Z,118.12
2023-03-06T13:22:09.584Z,135.00
2023-03-06T13:23:09.560Z,135.00
2023-03-06T13:24:09.558Z,123.75
2023-03-06T13:25:09.555Z,118.12
2023-03-06T13:26:09.579Z,106.88
2023-03-06T13:27:09.522Z,95.62
2023-03-06T13:28:09.536Z,84.38
2023-03-06T13:29:09.489Z,78.75
2023-03-06T13:30:09.502Z,73.12
2023-03-06T13:31:21.383Z,67.50
2023-03-06T13:32:09.517Z,61.88
2023-03-06T13:33:09.438Z,56.25
2023-03-06T13:34:09.568Z,50.62
2023-03-06T13:35:09.452Z,50.62
2023-03-06T13:36:09.454Z,45.00
2023-03-06T13:37:09.428Z,45.00
2023-03-06T13:38:09.421Z,39.38
2023-03-06T13:39:09.389Z,39.38
2023-03-06T13:40:09.362Z,33.75
2023-03-06T13:41:09.369Z,28.12
2023-03-06T13:42:09.393Z,28.12
2023-03-06T13:43:09.311Z,28.12
2023-03-06T13:44:09.323Z,28.12
2023-03-06T13:45:09.316Z,28.12
2023-03-06T13:46:09.370Z,28.12
2023-03-06T13:47:09.312Z,22.50
2023-03-06T13:48:33.700Z,16.88
2023-03-06T13:49:11.284Z,11.25
2023-03-06T13:50:09.252Z,11.25
2023-03-06T13:51:09.238Z,11.25
2023-03-06T13:52:09.241Z,11.25
2023-03-06T13:53:09.256Z,16.88
2023-03-06T13:54:09.304Z,16.88
2023-03-06T13:55:09.218Z,22.50
2023-03-06T13:56:09.655Z,28.12
2023-03-06T13:57:09.204Z,33.75
2023-03-06T13:58:09.224Z,33.75
2023-03-06T13:59:11.126Z,33.75
2023-03-06T14:00:10.043Z,28.12
2023-03-06T14:01:09.205Z,28.12
2023-03-06T14:02:09.108Z,33.75
2023-03-06T14:03:09.091Z,33.75
2023-03-06T14:04:10.126Z,33.75
2023-03-06T14:05:10.125Z,33.75
2023-03-06T14:06:09.068Z,33.75
2023-03-06T14:07:09.042Z,33.75
2023-03-06T14:08:09.077Z,33.75
2023-03-06T14:09:09.081Z,33.75
2023-03-06T14:10:09.069Z,33.75
2023-03-06T14:11:09.004Z,28.12
2023-03-06T14:12:09.589Z,33.75
2023-03-06T14:13:08.987Z,28.12
2023-03-06T14:14:08.989Z,28.12
2023-03-06T14:15:09.002Z,28.12
2023-03-06T14:16:09.008Z,39.38
2023-03-06T14:17:08.952Z,45.00
2023-03-06T14:18:08.930Z,50.62
2023-03-06T14:19:08.943Z,45.00
2023-03-06T14:20:08.955Z,50.62
2023-03-06T14:21:08.899Z,61.88
2023-03-06T14:22:08.903Z,73.12
2023-03-06T14:23:08.877Z,78.75
2023-03-06T14:24:08.894Z,84.38
2023-03-06T14:25:08.871Z,84.38
2023-03-06T14:26:08.860Z,90.00
2023-03-06T14:27:09.829Z,95.62
2023-03-06T14:28:14.066Z,95.62
2023-03-06T14:29:08.839Z,95.62
2023-03-06T14:30:08.818Z,95.62
2023-03-06T14:31:08.821Z,95.62
2023-03-06T14:32:08.803Z,101.25
2023-03-06T14:33:08.784Z,123.75
2023-03-06T14:34:08.778Z,185.62
2023-03-06T14:35:08.759Z,129.38
2023-03-06T14:36:08.770Z,202.50
2023-03-06T14:37:08.740Z,303.75
2023-03-06T14:38:08.713Z,146.25
2023-03-06T14:39:08.755Z,146.25
2023-03-06T14:40:08.863Z,163.12
2023-03-06T14:41:08.717Z,219.38
2023-03-06T14:42:08.671Z,354.38
2023-03-06T14:43:08.639Z,298.12
2023-03-06T14:44:08.678Z,303.75
2023-03-06T14:45:08.665Z,157.50
2023-03-06T14:46:08.670Z,118.12
2023-03-06T14:47:08.658Z,101.25
2023-03-06T14:48:08.609Z,90.00
2023-03-06T14:49:08.618Z,90.00
2023-03-06T14:50:08.613Z,84.38
2023-03-06T14:51:09.394Z,90.00
2023-03-06T14:52:08.547Z,90.00
2023-03-06T14:53:08.550Z,95.62
2023-03-06T14:54:08.697Z,101.25
2023-03-06T14:55:08.619Z,106.88
2023-03-06T14:56:08.533Z,112.50
2023-03-06T14:57:08.532Z,123.75
2023-03-06T14:58:08.535Z,135.00
2023-03-06T14:59:08.513Z,151.88
2023-03-06T15:00:09.398Z,163.12
2023-03-06T15:01:08.465Z,213.75
2023-03-06T15:02:08.568Z,270.00
2023-03-06T15:03:08.501Z,292.50
2023-03-06T15:04:08.484Z,315.00
2023-03-06T15:05:08.446Z,320.62
2023-03-06T15:06:08.401Z,337.50
2023-03-06T15:07:08.402Z,326.25
2023-03-06T15:08:08.395Z,343.12
2023-03-06T15:09:08.461Z,331.88
2023-03-06T15:10:08.402Z,331.88
2023-03-06T15:11:08.338Z,320.62
2023-03-06T15:12:08.319Z,309.38
2023-03-06T15:13:08.333Z,298.12
2023-03-06T15:14:08.336Z,298.12
2023-03-06T15:15:08.320Z,292.50
2023-03-06T15:16:08.321Z,286.88
2023-03-06T15:17:08.306Z,230.62
2023-03-06T15:18:08.264Z,202.50
2023-03-06T15:19:08.255Z,185.62
2023-03-06T15:20:08.298Z,168.75
2023-03-06T15:21:08.219Z,157.50
2023-03-06T15:22:08.203Z,140.62
2023-03-06T15:23:08.224Z,129.38
2023-03-06T15:24:08.197Z,123.75
2023-03-06T15:25:08.235Z,112.50
2023-03-06T15:26:08.165Z,101.25
2023-03-06T15:27:08.165Z,95.62
2023-03-06T15:28:08.173Z,90.00
2023-03-06T15:29:10.174Z,84.38
2023-03-06T15:30:09.165Z,73.12
2023-03-06T15:31:08.219Z,67.50
2023-03-06T15:32:08.121Z,61.88
2023-03-06T15:33:08.100Z,61.88
2023-03-06T15:34:09.083Z,56.25
2023-03-06T15:35:08.084Z,50.62
2023-03-06T15:36:08.064Z,50.62
2023-03-06T15:37:08.080Z,50.62
2023-03-06T15:38:08.043Z,50.62
2023-03-06T15:39:08.042Z,50.62
2023-03-06T15:40:08.112Z,50.62
2023-03-06T15:41:08.077Z,56.25
2023-03-06T15:42:07.988Z,56.25
2023-03-06T15:43:08.007Z,56.25
2023-03-06T15:44:07.964Z,56.25
2023-03-06T15:45:07.952Z,61.88
2023-03-06T15:46:08.122Z,61.88
2023-03-06T15:47:09.033Z,61.88
2023-03-06T15:48:08.969Z,61.88
2023-03-06T15:49:07.910Z,61.88
2023-03-06T15:50:07.914Z,61.88
2023-03-06T15:51:07.953Z,61.88
2023-03-06T15:52:07.880Z,56.25
2023-03-06T15:53:07.885Z,56.25
2023-03-06T15:54:12.210Z,56.25
2023-03-06T15:55:08.886Z,50.62
2023-03-06T15:56:07.827Z,45.00
2023-03-06T15:57:07.835Z,45.00
2023-03-06T15:58:07.810Z,39.38
2023-03-06T15:59:07.915Z,39.38
2023-03-06T16:00:12.914Z,39.38
2023-03-06T16:01:07.768Z,39.38
2023-03-06T16:02:07.774Z,39.38
2023-03-06T16:03:07.735Z,33.75
2023-03-06T16:04:07.775Z,33.75
2023-03-06T16:05:07.737Z,33.75
2023-03-06T16:06:07.725Z,33.75
2023-03-06T16:07:07.858Z,33.75
2023-03-06T16:08:09.046Z,28.12
2023-03-06T16:09:07.856Z,28.12
2023-03-06T16:10:07.654Z,28.12
2023-03-06T16:11:07.653Z,28.12
2023-03-06T16:12:07.678Z,28.12
2023-03-06T16:13:07.663Z,22.50
2023-03-06T16:14:07.602Z,22.50
2023-03-06T16:15:07.623Z,22.50
2023-03-06T16:16:07.729Z,22.50
2023-03-06T16:17:07.594Z,22.50
2023-03-06T16:18:07.609Z,22.50
2023-03-06T16:19:11.451Z,22.50
2023-03-06T16:20:07.550Z,22.50
2023-03-06T16:21:07.545Z,22.50
2023-03-06T16:22:07.518Z,16.88
2023-03-06T16:23:08.253Z,16.88
2023-03-06T16:24:07.489Z,16.88
2023-03-06T16:25:07.517Z,16.88
2023-03-06T16:26:07.457Z,16.88
2023-03-06T16:27:07.460Z,16.88
2023-03-06T16:28:07.562Z,16.88
2023-03-06T16:29:07.433Z,16.88
2023-03-06T16:30:07.418Z,16.88
2023-03-06T16:31:07.455Z,16.88
2023-03-06T16:32:07.444Z,16.88
2023-03-06T16:33:07.421Z,16.88
2023-03-06T16:34:07.434Z,16.88
2023-03-06T16:35:07.363Z,16.88
2023-03-06T16:36:07.339Z,16.88
2023-03-06T16:37:07.331Z,11.25
2023-03-06T16:38:07.343Z,11.25
2023-03-06T16:39:07.330Z,11.25
2023-03-06T16:40:08.313Z,11.25
2023-03-06T16:41:07.293Z,11.25
2023-03-06T16:42:07.284Z,11.25
2023-03-06T16:43:07.274Z,11.25
2023-03-06T16:44:07.305Z,11.25
2023-03-06T16:45:07.276Z,11.25
2023-03-06T16:46:07.252Z,5.62
2023-03-06T16:47:07.250Z,5.62
2023-03-06T16:48:07.200Z,5.62
2023-03-06T16:49:07.220Z,5.62
2023-03-06T16:50:07.448Z,5.62
2023-03-06T16:51:07.197Z,5.62
2023-03-06T16:52:07.164Z,5.62
2023-03-06T16:53:07.167Z,5.62
2023-03-06T16:54:07.163Z,11.25
2023-03-06T16:55:07.175Z,16.88
2023-03-06T16:56:07.154Z,16.88
2023-03-06T16:57:07.110Z,11.25
2023-03-06T16:58:07.106Z,5.62
2023-03-06T16:59:07.301Z,5.62
2023-03-06T17:00:07.146Z,0.00
2023-03-06T17:01:07.086Z,0.00
2023-03-06T17:02:07.084Z,0.00
2023-03-06T17:03:07.050Z,0.00
2023-03-06T17:04:07.031Z,0.00
2023-03-06T17:05:07.066Z,0.00
2023-03-06T17:06:07.050Z,0.00
2023-03-06T17:07:07.009Z,0.00
2023-03-06T17:08:06.987Z,0.00
2023-03-06T17:09:06.979Z,0.00
2023-03-06T17:10:06.967Z,0.00
2023-03-06T17:11:06.984Z,0.00
2023-03-06T17:12:06.948Z,0.00
2023-03-06T17:13:06.927Z,0.00
2023-03-06T17:14:07.086Z,0.00
2023-03-06T17:15:06.918Z,0.00
2023-03-06T17:16:06.951Z,0.00
2023-03-06T17:17:06.929Z,0.00
2023-03-06T17:18:06.879Z,0.00
2023-03-06T17:19:06.864Z,0.00
2023-03-06T17:20:06.870Z,0.00
2023-03-06T17:21:06.852Z,0.00
2023-03-06T17:22:06.866Z,0.00
2023-03-06T17:23:06.845Z,0.00
2023-03-06T17:24:06.825Z,0.00
2023-03-06T17:25:06.800Z,0.00
2023-03-06T17:26:06.803Z,0.00
2023-03-06T17:27:06.813Z,0.00
2023-03-06T17:28:06.768Z,0.00
2023-03-06T17:29:07.236Z,0.00
2023-03-06T17:30:06.747Z,0.00
2023-03-06T17:31:06.822Z,0.00
2023-03-06T17:32:06.737Z,0.00
2023-03-06T17:33:06.766Z,0.00
2023-03-06T17:34:06.704Z,0.00
2023-03-06T17:35:06.666Z,0.00
2023-03-06T17:36:06.661Z,0.00
2023-03-06T17:37:06.727Z,0.00
2023-03-06T17:38:06.670Z,0.00
2023-03-06T17:39:06.652Z,0.00
2023-03-06T17:40:06.639Z,0.00
2023-03-06T17:41:06.615Z,0.00
2023-03-06T17:42:06.603Z,0.00
2023-03-06T17:43:06.633Z,0.00
2023-03-06T17:44:06.596Z,0.00
2023-03-06T17:45:07.143Z,0.00
2023-03-06T17:46:06.701Z,0.00
2023-03-06T17:47:06.558Z,0.00
2023-03-06T17:48:06.524Z,0.00
2023-03-06T17:49:06.544Z,0.00
2023-03-06T17:50:06.504Z,0.00
2023-03-06T17:51:06.528Z,0.00
2023-03-06T17:52:06.484Z,0.00
2023-03-06T17:53:06.494Z,0.00
2023-03-06T17:54:07.008Z,0.00
2023-03-06T17:55:06.444Z,0.00
2023-03-06T17:56:06.436Z,0.00
2023-03-06T17:57:06.451Z,0.00
2023-03-06T17:58:06.437Z,0.00
2023-03-06T17:59:06.455Z,0.00
2023-03-06T18:00:06.400Z,0.00
2023-03-06T18:01:06.382Z,0.00
2023-03-06T18:02:06.627Z,0.00
2023-03-06T18:03:06.402Z,0.00
2023-03-06T18:04:06.336Z,0.00
2023-03-06T18:05:06.372Z,0.00
2023-03-06T18:06:06.330Z,0.00
2023-03-06T18:07:06.320Z,0.00
2023-03-06T18:08:06.278Z,0.00
2023-03-06T18:09:06.317Z,0.00
2023-03-06T18:10:06.345Z,0.00
2023-03-06T18:11:06.263Z,0.00
2023-03-06T18:12:06.266Z,0.00
2023-03-06T18:13:06.244Z,0.00
2023-03-06T18:14:06.256Z,0.00
2023-03-06T18:15:06.269Z,0.00
2023-03-06T18:16:06.293Z,0.00
2023-03-06T18:17:06.199Z,0.00
2023-03-06T18:18:06.188Z,0.00
2023-03-06T18:19:06.361Z,0.00
2023-03-06T18:20:06.214Z,0.00
2023-03-06T18:23:24.073Z,0.00
2023-03-06T18:24:24.133Z,0.00
2023-03-06T18:25:24.022Z,0.00
2023-03-06T18:26:23.933Z,0.00
2023-03-06T18:27:23.962Z,0.00
2023-03-06T18:28:23.891Z,0.00
2023-03-06T18:29:23.951Z,0.00
2023-03-06T18:30:23.856Z,0.00
2023-03-06T18:31:23.912Z,0.00
2023-03-06T18:32:23.876Z,0.00
2023-03-06T18:33:23.827Z,0.00
2023-03-06T18:34:23.812Z,0.00
2023-03-06T18:35:23.881Z,0.00
2023-03-06T18:36:23.779Z,0.00
2023-03-06T18:37:23.825Z,0.00
2023-03-06T18:38:23.757Z,0.00
2023-03-06T18:39:23.758Z,0.00
2023-03-06T18:40:24.907Z,0.00
2023-03-06T18:41:23.766Z,0.00
2023-03-06T18:42:23.809Z,0.00
2023-03-06T18:43:23.745Z,0.00
2023-03-06T18:44:23.696Z,0.00
2023-03-06T18:45:23.673Z,0.00
2023-03-06T18:46:23.699Z,0.00
2023-03-06T18:47:24.492Z,0.00
2023-03-06T18:48:23.656Z,0.00
2023-03-06T18:49:23.628Z,0.00
2023-03-06T18:50:23.626Z,0.00
2023-03-06T18:51:23.644Z,0.00
2023-03-06T18:52:23.586Z,0.00
2023-03-06T18:53:23.565Z,0.00
2023-03-06T18:54:23.589Z,0.00
2023-03-06T18:55:23.543Z,0.00
2023-03-06T18:56:23.524Z,0.00
2023-03-06T18:57:23.522Z,0.00
2023-03-06T18:58:23.501Z,0.00
2023-03-06T18:59:23.492Z,0.00
2023-03-06T19:00:23.498Z,0.00
2023-03-06T19:01:23.540Z,0.00
2023-03-06T19:02:23.455Z,0.00
2023-03-06T19:03:23.442Z,0.00
2023-03-06T19:04:23.496Z,0.00
2023-03-06T19:05:23.439Z,0.00
2023-03-06T19:06:23.412Z,0.00
2023-03-06T19:07:23.395Z,0.00
2023-03-06T19:08:23.448Z,0.00
2023-03-06T19:09:23.379Z,0.00
2023-03-06T19:10:23.388Z,0.00
2023-03-06T19:11:23.375Z,0.00
2023-03-06T19:12:23.335Z,0.00
2023-03-06T19:13:23.319Z,0.00
2023-03-06T19:14:23.336Z,0.00
2023-03-06T19:15:23.305Z,0.00
2023-03-06T19:16:23.372Z,0.00
2023-03-06T19:17:24.926Z,0.00
2023-03-06T19:18:23.269Z,0.00
2023-03-06T19:19:23.247Z,0.00
2023-03-06T19:20:23.297Z,0.00
2023-03-06T19:21:23.214Z,0.00
2023-03-06T19:22:23.246Z,0.00
2023-03-06T19:23:23.198Z,0.00
2023-03-06T19:24:23.213Z,0.00
2023-03-06T19:25:23.184Z,0.00
2023-03-06T19:26:23.164Z,0.00
2023-03-06T19:27:23.193Z,0.00
2023-03-06T19:28:23.493Z,0.00
2023-03-06T19:29:23.127Z,0.00
2023-03-06T19:30:23.117Z,0.00
2023-03-06T19:31:23.169Z,0.00
2023-03-06T19:32:23.210Z,0.00
2023-03-06T19:33:23.239Z,0.00
2023-03-06T19:34:23.073Z,0.00
2023-03-06T19:35:23.144Z,0.00
2023-03-06T19:36:23.044Z,0.00
2023-03-06T19:37:23.024Z,0.00
2023-03-06T19:38:23.212Z,0.00
2023-03-06T19:39:23.002Z,0.00
2023-03-06T19:40:22.995Z,0.00
2023-03-06T19:41:22.968Z,0.00
2023-03-06T19:42:22.966Z,0.00
2023-03-06T19:43:22.959Z,0.00
2023-03-06T19:44:23.019Z,0.00
2023-03-06T19:45:22.938Z,0.00
2023-03-06T19:46:22.917Z,0.00
2023-03-06T19:47:22.920Z,0.00
2023-03-06T19:48:22.919Z,0.00
2023-03-06T19:49:22.941Z,0.00
2023-03-06T19:50:22.934Z,0.00
2023-03-06T19:51:22.899Z,0.00
2023-03-06T19:52:22.839Z,0.00
2023-03-06T19:53:22.856Z,0.00
2023-03-06T19:54:22.817Z,0.00
2023-03-06T19:55:22.822Z,0.00
2023-03-06T19:56:22.807Z,0.00
2023-03-06T19:57:22.816Z,0.00
2023-03-06T19:58:22.766Z,0.00
2023-03-06T19:59:22.788Z,0.00
2023-03-06T20:00:22.784Z,0.00
2023-03-06T20:01:22.795Z,0.00
2023-03-06T20:02:22.731Z,0.00
2023-03-06T20:03:22.714Z,0.00
2023-03-06T20:04:22.744Z,0.00
2023-03-06T20:05:22.683Z,0.00
2023-03-06T20:06:22.701Z,0.00
2023-03-06T20:07:22.664Z,0.00
2023-03-06T20:08:22.646Z,0.00
2023-03-06T20:09:22.661Z,0.00
2023-03-06T20:10:22.651Z,0.00
2023-03-06T20:11:22.602Z,0.00
2023-03-06T20:12:22.713Z,0.00
2023-03-06T20:13:22.587Z,0.00
2023-03-06T20:14:22.573Z,0.00
2023-03-06T20:15:24.126Z,0.00
2023-03-06T20:16:23.691Z,0.00
2023-03-06T20:17:23.727Z,0.00
2023-03-06T20:18:23.652Z,0.00
2023-03-06T20:19:23.660Z,0.00
2023-03-06T20:20:23.632Z,0.00
2023-03-06T20:21:23.745Z,0.00
2023-03-06T20:22:23.666Z,0.00
2023-03-06T20:23:23.627Z,0.00
2023-03-06T20:24:23.622Z,0.00
2023-03-06T20:25:23.580Z,0.00
2023-03-06T20:26:23.566Z,0.00
2023-03-06T20:27:23.543Z,0.00
2023-03-06T20:28:23.636Z,0.00
2023-03-06T20:29:23.612Z,0.00
2023-03-06T20:30:24.259Z,0.00
2023-03-06T20:31:23.614Z,0.00
2023-03-06T20:32:23.782Z,0.00
2023-03-06T20:33:23.589Z,0.00
2023-03-06T20:34:23.492Z,0.00
2023-03-06T20:35:23.537Z,0.00
2023-03-06T20:36:24.515Z,0.00
2023-03-06T20:37:23.501Z,0.00
2023-03-06T20:38:25.319Z,0.00
2023-03-06T20:39:23.498Z,0.00
2023-03-06T20:40:23.453Z,0.00
2023-03-06T20:41:23.483Z,0.00
2023-03-06T20:42:23.431Z,0.00
2023-03-06T20:43:23.449Z,0.00
2023-03-06T20:44:23.437Z,0.00
2023-03-06T20:45:23.389Z,0.00
2023-03-06T20:46:25.295Z,0.00
2023-03-06T20:47:23.872Z,0.00
2023-03-06T20:48:23.476Z,0.00
2023-03-06T20:49:26.174Z,0.00
2023-03-06T20:50:25.408Z,0.00
2023-03-06T20:51:24.303Z,0.00
2023-03-06T20:54:57.653Z,0.00
2023-03-06T20:55:57.668Z,0.00
2023-03-06T20:56:57.637Z,0.00
2023-03-06T20:57:57.547Z,0.00
2023-03-06T20:58:57.505Z,0.00
2023-03-06T20:59:57.659Z,0.00
2023-03-06T21:00:57.604Z,0.00
2023-03-06T21:01:57.559Z,0.00
2023-03-06T21:02:57.469Z,0.00
2023-03-06T21:03:57.618Z,0.00
2023-03-06T21:04:57.415Z,0.00
2023-03-06T21:05:57.384Z,0.00
2023-03-06T21:06:57.394Z,0.00
2023-03-06T21:07:57.363Z,0.00
2023-03-06T21:08:57.344Z,0.00
2023-03-06T21:09:57.345Z,0.00
2023-03-06T21:10:57.327Z,0.00
2023-03-06T21:11:57.346Z,0.00
2023-03-06T21:12:57.297Z,0.00
2023-03-06T21:13:57.317Z,0.00
2023-03-06T21:14:57.281Z,0.00
2023-03-06T21:15:57.321Z,0.00
2023-03-06T21:16:57.264Z,0.00
2023-03-06T21:17:57.276Z,0.00
2023-03-06T21:18:57.236Z,0.00
2023-03-06T21:19:57.228Z,0.00
2023-03-06T21:20:57.212Z,0.00
2023-03-06T21:21:57.221Z,0.00
2023-03-06T21:25:11.467Z,0.00
2023-03-06T21:26:11.491Z,0.00
2023-03-06T21:27:12.229Z,0.00
2023-03-06T21:28:11.538Z,0.00
2023-03-06T21:29:11.542Z,0.00
2023-03-06T21:30:11.443Z,0.00
2023-03-06T21:31:11.424Z,0.00